Time;durP1;ratioP1;P1;durP2;ratioP2;P2;SDS_P1;SDS_P2;PMS_P1;PMS_P2;Temp;Humidity;BMP_temperature;BMP_pressure;BME280_temperature;BME280_humidity;BME280_pressure;Samples;Min_cycle;Max_cycle;Signal;HPM_P1;HPM_P2
2021/07/12 10:18:41;;;;;;;7.70;6.60;;;;;;;49.86;11.59;99809.47;5061086;28;20961;-62
2021/07/12 10:21:09;;;;;;;7.20;6.27;;;;;;;50.14;11.79;99807.50;5054706;28;20033;-60
2021/07/12 10:23:35;;;;;;;7.07;6.43;;;;;;;50.44;11.86;99804.06;5058130;28;20128;-60
2021/07/12 10:26:02;;;;;;;8.03;7.13;;;;;;;50.68;10.80;99806.50;5055540;28;20116;-61
2021/07/12 10:28:40;;;;;;;;;;;;;;;50.44;11.44;99807.66;5055474;28;20496;-58
2021/07/12 10:31:20;;;;;;;8.82;6.63;;;;;;;50.15;11.02;99803.63;5072426;28;20006;-55
2021/07/12 10:33:45;;;;;;;10.25;8.25;;;;;;;49.86;11.00;99806.69;5058702;28;20504;-58
2021/07/12 10:36:11;;;;;;;7.10;6.50;;;;;;;49.64;10.62;99804.63;5050789;28;20048;-58
2021/07/12 10:38:43;;;;;;;9.10;8.30;;;;;;;49.47;10.53;99794.19;5068519;28;20068;-58
2021/07/12 10:41:17;;;;;;;11.32;8.60;;;;;;;49.41;10.98;99800.13;5045530;28;20130;-58
2021/07/12 10:43:42;;;;;;;8.48;7.85;;;;;;;49.41;11.09;99787.16;5056622;28;20043;-58
2021/07/12 10:46:09;;;;;;;7.87;7.27;;;;;;;49.34;11.48;99781.16;5057128;28;20037;-57
2021/07/12 10:48:40;;;;;;;6.60;6.20;;;;;;;49.43;10.63;99781.28;5052533;28;20045;-59
2021/07/12 10:51:18;;;;;;;8.85;8.05;;;;;;;49.40;11.03;99773.59;5049916;28;20041;-59
2021/07/12 10:53:54;;;;;;;10.82;9.73;;;;;;;49.42;11.16;99779.63;5054647;28;20048;-56
2021/07/12 10:56:21;;;;;;;8.30;7.30;;;;;;;49.62;10.71;99780.03;5057703;28;20041;-56
2021/07/12 10:58:47;;;;;;;7.32;6.88;;;;;;;49.82;10.97;99781.63;5048553;28;20045;-57
2021/07/12 11:01:19;;;;;;;7.60;7.00;;;;;;;49.87;10.29;99773.22;5075200;28;20092;-57
2021/07/12 11:03:49;;;;;;;8.57;7.72;;;;;;;49.83;10.32;99768.63;5057693;28;20041;-55
2021/07/12 11:06:22;;;;;;;10.48;8.00;;;;;;;50.00;10.96;99774.28;5049496;28;20073;-55
2021/07/12 11:08:47;;;;;;;9.15;7.50;;;;;;;49.97;10.96;99774.94;5047223;28;20052;-56
2021/07/12 11:11:37;;;;;;;8.23;7.27;;;;;;;49.90;10.61;99769.00;5048142;28;20045;-57
2021/07/12 11:14:07;;;;;;;12.93;7.43;;;;;;;49.73;10.92;99777.09;5046899;28;20052;-54
2021/07/12 11:16:45;;;;;;;7.97;7.20;;;;;;;49.60;10.45;99773.19;5047230;28;20059;-55
2021/07/12 11:19:28;;;;;;;8.68;7.82;;;;;;;49.09;11.06;99763.13;5051047;28;20036;-58
2021/07/12 11:22:12;;;;;;;44.63;10.35;;;;;;;49.17;11.11;99764.34;5063340;28;20420;-56
2021/07/12 11:24:38;;;;;;;16.52;11.48;;;;;;;49.21;11.61;99766.19;5056345;28;20564;-56
2021/07/12 11:27:05;;;;;;;8.67;6.63;;;;;;;49.25;11.00;99762.84;5070363;28;20047;-57
2021/07/12 11:29:31;;;;;;;7.22;6.55;;;;;;;49.11;11.03;99758.09;5043327;28;20046;-58
2021/07/12 11:32:06;;;;;;;;;;;;;;;49.03;11.26;99760.72;5051907;28;20041;-58
2021/07/12 11:34:46;;;;;;;9.40;8.27;;;;;;;49.20;11.76;99758.22;5053462;28;20011;-56
2021/07/12 11:37:25;;;;;;;9.57;8.52;;;;;;;49.34;11.30;99758.22;5049966;28;20052;-57
2021/07/12 11:39:57;;;;;;;9.23;7.93;;;;;;;49.42;11.29;99752.81;5033248;28;20090;-57
2021/07/12 11:42:34;;;;;;;12.88;8.73;;;;;;;49.49;11.50;99761.53;5043190;28;20049;-58
2021/07/12 11:45:16;;;;;;;7.82;7.03;;;;;;;49.63;11.04;99758.75;5039178;28;20052;-58
2021/07/12 11:47:55;;;;;;;8.20;7.40;;;;;;;49.52;11.06;99754.56;5042961;28;20045;-55
2021/07/12 11:50:29;;;;;;;7.47;6.88;;;;;;;49.36;10.68;99756.00;5039034;28;20069;-55
2021/07/12 11:53:06;;;;;;;8.07;7.35;;;;;;;49.25;11.11;99752.59;5044012;28;20044;-54
2021/07/12 11:55:34;;;;;;;9.68;8.68;;;;;;;49.27;11.51;99753.09;5040080;28;20037;-55
2021/07/12 11:58:01;;;;;;;12.30;9.40;;;;;;;49.36;11.12;99750.47;5038530;28;20407;-56
2021/07/12 12:00:37;;;;;;;7.38;6.75;;;;;;;49.40;11.16;99751.47;5039112;28;20037;-56
2021/07/12 12:03:08;;;;;;;12.30;7.68;;;;;;;49.27;11.04;99742.06;5033140;28;20504;-57
2021/07/12 12:05:36;;;;;;;11.35;7.80;;;;;;;49.43;11.00;99739.81;5033619;28;20029;-59
2021/07/12 12:08:02;;;;;;;8.80;7.55;;;;;;;49.52;11.13;99737.97;5043937;28;20137;-60
2021/07/12 12:10:30;;;;;;;8.77;7.97;;;;;;;49.29;11.64;99730.69;5052914;28;20049;-60
2021/07/12 12:13:21;;;;;;;31.55;8.55;;;;;;;49.01;11.53;99733.41;5052746;28;20044;-61
2021/07/12 12:15:49;;;;;;;8.60;6.80;;;;;;;48.79;11.46;99731.31;5039501;28;20504;-59
2021/07/12 12:18:17;;;;;;;13.88;6.75;;;;;;;48.45;11.67;99729.97;5039084;28;20091;-59
2021/07/12 12:20:48;;;;;;;12.07;6.70;;;;;;;48.04;11.97;99729.75;5052291;28;20099;-59
2021/07/12 12:23:24;;;;;;;9.73;6.53;;;;;;;48.22;11.74;99732.50;5052771;28;20541;-59
2021/07/12 12:26:03;;;;;;;12.48;7.13;;;;;;;48.14;11.75;99740.63;5039752;28;20048;-56
2021/07/12 12:28:50;;;;;;;6.80;6.20;;;;;;;47.68;11.80;99737.69;5037466;28;20045;-58
2021/07/12 12:31:27;;;;;;;7.60;6.40;;;;;;;47.15;12.45;99733.00;5037271;28;20119;-59
2021/07/12 12:33:57;;;;;;;196.80;14.90;;;;;;;47.33;13.11;99727.84;5035259;28;20117;-53
2021/07/12 12:36:25;;;;;;;9.50;8.60;;;;;;;47.43;12.36;99727.75;5040892;28;20554;-57
2021/07/12 12:38:57;;;;;;;15.75;7.88;;;;;;;47.24;12.09;99708.38;5042604;28;20069;-57
2021/07/12 12:41:26;;;;;;;7.43;6.70;;;;;;;47.31;12.33;99722.66;5042655;28;20389;-59
2021/07/12 12:44:21;;;;;;;6.40;5.28;;;;;;;46.70;12.33;99725.16;5046940;28;20047;-61
2021/07/12 12:46:53;;;;;;;15.60;14.15;;;;;;;46.36;12.85;99728.72;5030816;28;20107;-61
2021/07/12 12:49:25;;;;;;;13.82;11.25;;;;;;;45.68;13.85;99719.47;5048790;28;20041;-60
2021/07/12 12:51:56;;;;;;;8.05;5.60;;;;;;;45.22;14.19;99699.56;5047728;28;20047;-60
2021/07/12 12:54:28;;;;;;;19.73;10.52;;;;;;;44.37;14.58;99703.16;5051585;28;20040;-61
2021/07/12 12:56:55;;;;;;;13.05;7.15;;;;;;;43.54;15.68;99710.59;5031441;28;20068;-61
2021/07/12 12:59:41;;;;;;;6.47;4.93;;;;;;;42.58;16.09;99695.13;5031656;28;20048;-60
2021/07/12 13:02:20;;;;;;;12.38;7.20;;;;;;;42.02;16.86;99687.47;5034678;28;20032;-62
2021/07/12 13:04:56;;;;;;;7.22;4.65;;;;;;;41.40;16.40;99690.53;5042743;28;20048;-61
2021/07/12 13:07:28;;;;;;;27.23;7.07;;;;;;;40.99;16.79;99680.91;5032118;28;20129;-61
2021/07/12 13:10:08;;;;;;;8.77;5.10;;;;;;;40.57;17.56;99675.88;5035987;28;20041;-59
2021/07/12 13:12:49;;;;;;;21.80;11.20;;;;;;;40.29;17.93;99675.97;5032457;28;20128;-59
2021/07/12 13:15:25;;;;;;;18.85;8.40;;;;;;;39.91;19.00;99671.16;5034120;28;20429;-60
2021/07/12 13:17:53;;;;;;;18.15;9.23;;;;;;;39.62;19.37;99680.38;5043035;28;20143;-60
2021/07/12 13:20:23;;;;;;;8.40;6.03;;;;;;;39.28;19.36;99677.44;5031502;28;20037;-59
2021/07/12 13:22:51;;;;;;;7.22;4.70;;;;;;;38.79;19.60;99680.63;5031722;28;20095;-60
2021/07/12 13:25:19;;;;;;;9.68;6.57;;;;;;;38.44;20.79;99675.97;5030903;28;20045;-59
2021/07/12 13:27:58;;;;;;;;;;;;;;;38.21;20.62;99677.81;5041366;28;20041;-59
2021/07/12 13:30:27;;;;;;;6.22;5.63;;;;;;;37.97;21.28;99676.84;5031575;28;19936;-59
2021/07/12 13:32:54;;;;;;;8.15;5.18;;;;;;;37.66;20.82;99662.47;5032691;28;20068;-58
2021/07/12 13:35:21;;;;;;;6.00;5.40;;;;;;;37.41;21.07;99669.00;5039422;28;20037;-59
2021/07/12 13:37:48;;;;;;;6.22;4.68;;;;;;;37.03;21.03;99659.19;5039235;28;20072;-61
2021/07/12 13:40:14;;;;;;;6.97;4.18;;;;;;;36.67;21.39;99662.66;5045815;28;20091;-60
2021/07/12 13:42:40;;;;;;;7.35;4.20;;;;;;;36.33;22.20;99658.50;5042498;28;20041;-59
2021/07/12 13:45:06;;;;;;;4.72;4.25;;;;;;;36.14;22.37;99659.50;5037326;28;20496;-59
2021/07/12 13:47:32;;;;;;;8.07;5.47;;;;;;;35.99;22.50;99646.22;5029375;28;20392;-64
2021/07/12 13:49:58;;;;;;;11.70;6.65;;;;;;;35.95;23.18;99657.72;5030650;28;20045;-61
2021/07/12 13:52:24;;;;;;;6.15;4.85;;;;;;;35.87;23.10;99649.84;5020229;28;20056;-60
2021/07/12 13:54:50;;;;;;;9.10;4.50;;;;;;;35.66;23.24;99650.94;5039443;28;20039;-59
2021/07/12 13:57:16;;;;;;;5.00;4.20;;;;;;;35.45;23.46;99653.97;5037507;28;20052;-55
2021/07/12 13:59:41;;;;;;;9.38;4.22;;;;;;;35.32;23.30;99648.63;5036641;28;20056;-56
2021/07/12 14:02:11;;;;;;;4.45;3.53;;;;;;;35.18;23.21;99651.34;5046254;28;20064;-56
2021/07/12 14:04:37;;;;;;;6.80;3.53;;;;;;;34.94;23.68;99646.59;5034596;28;20045;-56
2021/07/12 14:07:03;;;;;;;10.75;4.65;;;;;;;34.84;24.05;99648.91;5030899;28;20097;-55
2021/07/12 14:09:29;;;;;;;4.60;3.83;;;;;;;34.75;24.19;99648.31;5031263;28;20045;-56
2021/07/12 14:11:57;;;;;;;8.52;5.80;;;;;;;34.68;24.30;99643.91;5028921;28;20032;-60
2021/07/12 14:14:22;;;;;;;10.00;6.27;;;;;;;34.57;24.40;99647.22;5033280;28;20090;-54
2021/07/12 14:16:48;;;;;;;5.30;4.57;;;;;;;34.47;24.50;99652.22;5031832;28;20061;-54
2021/07/12 14:19:14;;;;;;;7.93;4.82;;;;;;;34.28;24.84;99645.78;5035289;28;20041;-56
2021/07/12 14:21:39;;;;;;;5.70;3.72;;;;;;;34.16;24.90;99648.22;5030266;28;20037;-53
2021/07/12 14:24:05;;;;;;;9.38;4.90;;;;;;;34.09;24.88;99644.66;5034585;28;20041;-56
2021/07/12 14:26:32;;;;;;;8.32;5.75;;;;;;;33.99;25.13;99641.53;5030429;28;20068;-55
2021/07/12 14:28:58;;;;;;;11.35;6.43;;;;;;;33.91;25.32;99636.34;5034935;28;20041;-54
2021/07/12 14:31:24;;;;;;;8.55;5.55;;;;;;;33.87;25.35;99629.66;5044103;28;20044;-53
2021/07/12 14:33:50;;;;;;;7.38;4.82;;;;;;;33.83;25.23;99639.22;5038416;28;20039;-53
2021/07/12 14:36:16;;;;;;;11.27;7.43;;;;;;;33.74;25.04;99635.88;5038307;28;20089;-55
2021/07/12 14:38:42;;;;;;;11.88;4.82;;;;;;;33.66;25.15;99636.00;5042224;28;20060;-52
2021/07/12 14:41:09;;;;;;;4.13;3.17;;;;;;;33.51;25.33;99636.19;5041023;28;20068;-53
2021/07/12 14:43:35;;;;;;;5.85;4.40;;;;;;;33.37;25.81;99631.78;5039090;28;20098;-52
2021/07/12 14:46:01;;;;;;;11.52;5.80;;;;;;;33.33;26.71;99629.69;5039847;28;20132;-54
2021/07/12 14:48:27;;;;;;;27.63;6.68;;;;;;;33.23;26.47;99630.06;5039322;28;20128;-55
2021/07/12 14:50:53;;;;;;;10.13;4.45;;;;;;;33.14;26.55;99625.81;5039216;28;20124;-51
2021/07/12 14:53:18;;;;;;;9.88;4.63;;;;;;;32.97;26.62;99624.47;5038954;28;20073;-53
2021/07/12 14:55:44;;;;;;;28.92;7.70;;;;;;;32.91;26.54;99627.97;5039548;28;20041;-55
2021/07/12 14:58:10;;;;;;;14.93;5.82;;;;;;;32.84;26.85;99622.53;5043328;28;20056;-56
2021/07/12 15:00:36;;;;;;;7.03;4.60;;;;;;;32.69;27.14;99625.34;5512228;22;20184;-53
2021/07/12 15:03:03;;;;;;;6.78;4.40;;;;;;;32.58;26.90;99622.31;4986157;28;20416;-54
2021/07/12 15:05:29;;;;;;;5.50;4.55;;;;;;;32.52;26.85;99618.53;4987184;28;20034;-55
2021/07/12 15:07:57;;;;;;;23.85;4.88;;;;;;;32.45;26.66;99620.34;4989744;28;20038;-55
2021/07/12 15:10:27;;;;;;;41.40;7.88;;;;;;;32.33;26.98;99624.59;4994333;28;20042;-55
2021/07/12 15:12:53;;;;;;;56.42;8.60;;;;;;;32.25;27.46;99616.66;4967986;28;20038;-52
2021/07/12 15:15:19;;;;;;;11.05;5.28;;;;;;;32.24;27.43;99623.06;4975090;28;20078;-52
2021/07/12 15:17:45;;;;;;;10.45;4.07;;;;;;;32.19;27.46;99620.13;4975624;28;20039;-53
2021/07/12 15:20:11;;;;;;;20.27;5.55;;;;;;;32.09;28.90;99622.25;4974537;28;20043;-55
2021/07/12 15:22:37;;;;;;;6.57;4.60;;;;;;;32.05;28.82;99612.91;4974626;28;20038;-53
2021/07/12 15:25:04;;;;;;;12.88;6.03;;;;;;;32.00;28.09;99612.66;4971124;28;20067;-60
2021/07/12 15:27:30;;;;;;;14.90;5.85;;;;;;;31.98;29.14;99604.78;4989779;28;20053;-57
2021/07/12 15:29:55;;;;;;;8.23;4.85;;;;;;;31.96;28.75;99601.47;4994466;28;20038;-56
2021/07/12 15:32:21;;;;;;;7.10;4.75;;;;;;;31.94;28.41;99608.88;4980004;28;20043;-56
2021/07/12 15:34:46;;;;;;;8.70;4.95;;;;;;;31.89;28.72;99611.31;4974721;28;20039;-57
2021/07/12 15:37:12;;;;;;;6.72;4.57;;;;;;;31.82;28.06;99605.03;4974505;28;20401;-57
2021/07/12 15:39:39;;;;;;;10.65;4.28;;;;;;;31.74;28.98;99606.00;4994155;28;20061;-58
2021/07/12 15:42:06;;;;;;;5.63;4.60;;;;;;;31.68;29.27;99601.38;4986312;28;20043;-57
2021/07/12 15:44:32;;;;;;;5.80;4.38;;;;;;;31.62;28.84;99602.13;4978944;28;20425;-56
2021/07/12 15:47:00;;;;;;;14.52;7.25;;;;;;;31.55;29.78;99610.09;4993885;28;20042;-56
2021/07/12 15:49:25;;;;;;;15.50;6.50;;;;;;;31.52;30.28;99604.25;4993405;28;20544;-57
2021/07/12 15:51:51;;;;;;;10.20;4.85;;;;;;;31.46;29.86;99607.69;4994207;28;20150;-57
2021/07/12 15:54:17;;;;;;;15.70;5.65;;;;;;;31.41;30.89;99608.25;4986976;28;20046;-56
2021/07/12 15:56:43;;;;;;;8.80;4.70;;;;;;;31.36;30.31;99617.91;4966694;28;20043;-59
2021/07/12 15:59:09;;;;;;;17.52;6.93;;;;;;;31.29;30.74;99607.09;4973670;28;20057;-56
2021/07/12 16:01:38;;;;;;;5.00;3.95;;;;;;;31.23;30.27;99609.69;4974090;28;20557;-57
2021/07/12 16:04:05;;;;;;;8.95;4.88;;;;;;;31.20;30.16;99607.34;4974621;28;20486;-57
2021/07/12 16:06:31;;;;;;;8.32;5.50;;;;;;;31.15;30.08;99602.53;4984529;28;20713;-56
2021/07/12 16:08:56;;;;;;;11.02;5.28;;;;;;;31.12;30.65;99600.25;4981792;28;20050;-56
2021/07/12 16:11:23;;;;;;;8.13;6.60;;;;;;;31.03;30.62;99604.06;4973930;28;20043;-56
2021/07/12 16:13:49;;;;;;;11.68;7.07;;;;;;;30.95;31.24;99602.25;4981954;28;20050;-58
2021/07/12 16:16:15;;;;;;;9.05;5.20;;;;;;;30.89;31.23;99607.53;4989362;28;20409;-59
2021/07/12 16:18:41;;;;;;;11.32;5.20;;;;;;;30.84;31.65;99616.13;4992817;28;20505;-57
2021/07/12 16:21:07;;;;;;;6.75;4.38;;;;;;;30.79;31.33;99610.47;4991247;28;20049;-58
2021/07/12 16:23:33;;;;;;;6.50;5.25;;;;;;;30.72;31.94;99607.69;4992140;28;20023;-57
2021/07/12 16:25:59;;;;;;;10.02;5.25;;;;;;;30.58;32.68;99605.81;4990165;28;20073;-55
2021/07/12 16:28:25;;;;;;;1.00;0.70;;;;;;;30.40;29.31;99596.44;4964249;28;20513;-59
2021/07/12 16:30:50;;;;;;;2.63;1.85;;;;;;;30.11;29.57;99599.84;4989290;28;20042;-59
2021/07/12 16:33:20;;;;;;;5.03;4.03;;;;;;;29.86;29.98;99604.53;4992166;28;20493;-60
2021/07/12 16:35:45;;;;;;;5.90;3.65;;;;;;;29.71;31.62;99609.81;4988567;28;20421;-61
2021/07/12 16:38:11;;;;;;;3.25;2.28;;;;;;;29.62;31.52;99602.00;4975336;28;20050;-60
2021/07/12 16:40:37;;;;;;;7.03;4.03;;;;;;;29.53;32.29;99603.06;4990574;28;20049;-60
2021/07/12 16:43:04;;;;;;;4.45;3.75;;;;;;;29.43;33.15;99617.50;4973229;28;20073;-60
2021/07/12 16:45:30;;;;;;;3.33;2.60;;;;;;;29.31;32.90;99607.34;4979385;28;20054;-59
2021/07/12 16:47:55;;;;;;;3.67;2.70;;;;;;;29.23;33.50;99608.19;4991843;28;20034;-57
2021/07/12 16:50:21;;;;;;;3.08;2.50;;;;;;;29.12;33.71;99600.53;4977890;28;20066;-63
2021/07/12 16:52:47;;;;;;;3.70;3.30;;;;;;;29.11;34.12;99614.09;4986466;28;20045;-59
2021/07/12 16:55:16;;;;;;;7.72;6.10;;;;;;;29.05;34.93;99615.63;4984686;28;20046;-59
2021/07/12 16:57:43;;;;;;;5.95;4.30;;;;;;;28.99;35.08;99619.84;4988187;28;20073;-58
2021/07/12 17:00:09;;;;;;;6.97;3.95;;;;;;;28.94;35.19;99627.53;4973055;28;20043;-59
2021/07/12 17:02:35;;;;;;;4.38;3.30;;;;;;;28.90;35.24;99631.56;4972797;28;20529;-58
2021/07/12 17:05:02;;;;;;;5.28;3.28;;;;;;;28.86;35.58;99629.41;4973110;28;20138;-61
2021/07/12 17:07:27;;;;;;;9.52;5.95;;;;;;;28.78;35.95;99630.28;4987797;28;20072;-62
2021/07/12 17:09:53;;;;;;;6.88;4.65;;;;;;;28.77;36.13;99636.63;4982724;28;20544;-58
2021/07/12 17:12:19;;;;;;;7.40;3.88;;;;;;;28.73;36.16;99632.63;4969874;28;20065;-59
2021/07/12 17:14:44;;;;;;;4.63;3.78;;;;;;;28.69;36.54;99633.06;4980750;28;20042;-58
2021/07/12 17:17:11;;;;;;;18.42;9.88;;;;;;;28.61;36.91;99636.59;4986601;28;20046;-60
2021/07/12 17:19:37;;;;;;;10.32;4.75;;;;;;;28.60;37.22;99640.28;4958947;28;20133;-47
2021/07/12 17:22:03;;;;;;;14.45;8.23;;;;;;;28.56;37.38;99634.44;4979234;28;20117;-58
2021/07/12 17:24:29;;;;;;;12.70;7.90;;;;;;;28.53;37.46;99645.47;4971350;28;20043;-56
2021/07/12 17:26:55;;;;;;;8.73;5.75;;;;;;;28.49;37.65;99640.63;4979395;28;20061;-58
2021/07/12 17:29:20;;;;;;;14.95;6.88;;;;;;;28.44;37.84;99649.16;4988683;28;20069;-59
2021/07/12 17:31:46;;;;;;;5.18;3.22;;;;;;;28.40;38.02;99653.19;4972279;28;20047;-54
2021/07/12 17:34:12;;;;;;;5.78;4.25;;;;;;;28.38;38.24;99655.16;4972470;28;20042;-56
2021/07/12 17:36:38;;;;;;;11.85;6.45;;;;;;;28.39;38.19;99658.69;4956224;28;20516;-57
2021/07/12 17:39:05;;;;;;;10.85;4.55;;;;;;;28.42;37.94;99661.03;4971417;28;20046;-60
2021/07/12 17:41:31;;;;;;;7.85;4.50;;;;;;;28.42;38.03;99663.72;4978299;28;20038;-54
2021/07/12 17:43:57;;;;;;;35.03;13.40;;;;;;;28.38;38.06;99665.03;4973171;28;20093;-58
2021/07/12 17:46:22;;;;;;;6.45;4.72;;;;;;;28.35;38.21;99660.03;4982632;28;20046;-59
2021/07/12 17:48:49;;;;;;;11.30;4.88;;;;;;;28.38;37.62;99662.34;4974340;28;20137;-58
2021/07/12 17:51:15;;;;;;;6.43;4.38;;;;;;;28.40;37.95;99658.53;4972531;28;20039;-59
2021/07/12 17:53:41;;;;;;;12.23;6.03;;;;;;;28.35;38.28;99655.50;4972252;28;20522;-58
2021/07/12 17:56:06;;;;;;;9.57;5.20;;;;;;;28.33;38.37;99672.72;4972654;28;20184;-58
2021/07/12 17:58:33;;;;;;;10.10;4.63;;;;;;;28.28;38.86;99675.06;4972058;28;20065;-57
2021/07/12 18:01:03;;;;;;;13.82;5.88;;;;;;;28.22;38.79;99674.72;4972342;28;20047;-58
2021/07/12 18:03:29;;;;;;;12.32;6.45;;;;;;;28.16;39.15;99675.38;4972259;28;20035;-57
2021/07/12 18:05:55;;;;;;;7.30;4.40;;;;;;;28.11;39.36;99672.31;4989742;28;20046;-58
2021/07/12 18:08:21;;;;;;;10.27;6.20;;;;;;;28.04;39.57;99667.81;4991428;28;20062;-58
2021/07/12 18:10:47;;;;;;;8.85;5.22;;;;;;;28.01;39.33;99677.00;4974561;28;20046;-58
2021/07/12 18:13:12;;;;;;;11.45;5.60;;;;;;;28.01;39.55;99678.81;4971536;28;20038;-57
2021/07/12 18:15:39;;;;;;;4.60;3.60;;;;;;;27.99;39.51;99676.34;4987019;28;20030;-54
2021/07/12 18:18:06;;;;;;;13.43;7.22;;;;;;;27.96;40.64;99678.47;4984141;28;20051;-56
2021/07/12 18:20:31;;;;;;;10.60;5.60;;;;;;;27.93;39.83;99679.66;4971303;28;20061;-48
2021/07/12 18:22:57;;;;;;;12.98;5.43;;;;;;;27.90;39.93;99681.84;4971731;28;20043;-52
2021/07/12 18:25:23;;;;;;;19.42;7.20;;;;;;;27.91;40.54;99678.97;4983574;28;20042;-48
2021/07/12 18:27:49;;;;;;;8.35;5.90;;;;;;;27.89;40.06;99681.00;4975541;28;20039;-51
2021/07/12 18:30:14;;;;;;;10.07;6.18;;;;;;;27.89;39.72;99689.00;4970880;28;21039;-57
2021/07/12 18:32:43;;;;;;;7.13;4.93;;;;;;;27.94;39.54;99697.38;4965720;28;20074;-51
2021/07/12 18:35:09;;;;;;;11.05;5.25;;;;;;;27.91;39.54;99696.84;4966800;28;20093;-53
2021/07/12 18:37:35;;;;;;;9.95;4.85;;;;;;;27.84;39.41;99687.81;4963042;28;20410;-55
2021/07/12 18:40:04;;;;;;;7.93;3.83;;;;;;;27.85;38.54;99690.31;4971754;28;20470;-57
2021/07/12 18:42:30;;;;;;;5.75;3.10;;;;;;;27.79;38.62;99696.34;4955431;28;20054;-57
2021/07/12 18:44:55;;;;;;;10.57;5.63;;;;;;;27.73;39.24;99689.78;4972995;28;20035;-53
2021/07/12 18:47:24;;;;;;;10.05;4.70;;;;;;;27.66;39.57;99690.59;4973596;28;20031;-53
2021/07/12 18:49:50;;;;;;;11.75;7.18;;;;;;;27.62;41.26;99698.09;4971037;28;20105;-56
2021/07/12 18:52:16;;;;;;;11.63;5.55;;;;;;;27.56;40.59;99701.41;4974175;28;20038;-54
2021/07/12 18:54:41;;;;;;;14.35;5.07;;;;;;;27.50;40.90;99698.53;4970173;28;20107;-53
2021/07/12 18:57:07;;;;;;;11.02;5.15;;;;;;;27.45;40.72;99693.66;4973882;28;20096;-55
2021/07/12 18:59:33;;;;;;;21.45;6.72;;;;;;;27.41;42.06;99700.31;4965578;28;20126;-59
2021/07/12 19:01:59;;;;;;;7.43;4.68;;;;;;;27.35;41.47;99700.94;4974137;28;20054;-54
2021/07/12 19:04:24;;;;;;;12.73;7.18;;;;;;;27.32;42.33;99695.94;4972547;28;20417;-54
2021/07/12 19:06:50;;;;;;;13.05;6.03;;;;;;;27.31;42.11;99699.59;4973329;28;20039;-55
2021/07/12 19:09:16;;;;;;;11.25;4.75;;;;;;;27.31;41.74;99700.44;4975848;28;20030;-55
2021/07/12 19:11:41;;;;;;;10.98;6.65;;;;;;;27.32;42.27;99694.06;4970424;28;20445;-58
2021/07/12 19:14:08;;;;;;;11.00;5.18;;;;;;;27.29;41.87;99688.22;4962982;28;20117;-57
2021/07/12 19:16:38;;;;;;;10.00;6.13;;;;;;;27.25;41.98;99701.06;4970981;28;20145;-56
2021/07/12 19:19:07;;;;;;;9.52;5.65;;;;;;;27.22;41.90;99695.19;4966072;28;20122;-54
2021/07/12 19:21:36;;;;;;;7.38;5.70;;;;;;;27.20;42.55;99699.88;4966313;28;20035;-57
2021/07/12 19:24:03;;;;;;;11.00;5.82;;;;;;;27.15;43.04;99707.50;4971065;28;20043;-54
2021/07/12 19:26:29;;;;;;;15.50;6.25;;;;;;;27.10;43.64;99709.81;4952163;28;20043;-54
2021/07/12 19:28:56;;;;;;;11.45;6.07;;;;;;;27.07;43.80;99704.78;4966437;28;20505;-54
2021/07/12 19:31:22;;;;;;;11.05;6.40;;;;;;;27.04;43.52;99702.44;4969302;28;20039;-55
2021/07/12 19:33:48;;;;;;;10.68;5.30;;;;;;;27.07;43.27;99710.13;4963722;28;20050;-54
2021/07/12 19:36:13;;;;;;;10.25;5.95;;;;;;;27.03;43.05;99709.59;4971912;28;20047;-56
2021/07/12 19:38:39;;;;;;;10.82;6.97;;;;;;;26.99;44.27;99708.25;4973323;28;20050;-53
2021/07/12 19:41:05;;;;;;;14.30;6.53;;;;;;;26.96;44.79;99709.38;4975601;28;20497;-56
2021/07/12 19:43:36;;;;;;;12.93;6.10;;;;;;;26.93;44.28;99711.53;4976997;28;20050;-55
2021/07/12 19:46:02;;;;;;;10.63;6.88;;;;;;;26.87;44.86;99706.81;4975732;28;20035;-57
2021/07/12 19:48:27;;;;;;;11.48;6.57;;;;;;;26.82;45.00;99711.75;4973854;28;20126;-54
2021/07/12 19:50:55;;;;;;;14.48;8.50;;;;;;;26.78;45.49;99716.56;4978744;28;20098;-51
2021/07/12 19:53:21;;;;;;;19.90;8.68;;;;;;;26.78;45.49;99716.56;4970982;28;20065;-53
2021/07/12 19:55:46;;;;;;;9.50;6.15;;;;;;;26.75;45.48;99721.34;4979611;28;20046;-55
2021/07/12 19:58:12;;;;;;;13.95;7.82;;;;;;;26.70;45.55;99719.16;4977091;28;20054;-53
2021/07/12 20:00:39;;;;;;;16.67;8.77;;;;;;;26.65;46.06;99720.59;4973935;28;20043;-56
2021/07/12 20:03:08;;;;;;;21.17;9.50;;;;;;;26.59;46.45;99718.59;4978482;28;20422;-54
2021/07/12 20:05:37;;;;;;;12.27;8.25;;;;;;;26.51;46.90;99722.00;4993179;28;20042;-53
2021/07/12 20:08:03;;;;;;;19.58;6.68;;;;;;;26.48;46.95;99717.00;4977121;28;20047;-56
2021/07/12 20:10:30;;;;;;;12.27;6.70;;;;;;;26.45;47.37;99718.13;4977740;28;20552;-52
2021/07/12 20:12:56;;;;;;;19.73;7.38;;;;;;;26.41;47.64;99723.91;4975668;28;20046;-54
2021/07/12 20:15:22;;;;;;;18.67;9.00;;;;;;;26.36;48.26;99720.88;4977346;28;20470;-54
2021/07/12 20:17:48;;;;;;;22.45;9.00;;;;;;;26.31;48.51;99724.00;4970938;28;20049;-51
2021/07/12 20:20:15;;;;;;;16.48;8.43;;;;;;;26.28;48.52;99728.78;4987094;28;20065;-51
2021/07/12 20:22:41;;;;;;;20.05;10.32;;;;;;;26.20;49.54;99723.34;4993562;28;20045;-54
2021/07/12 20:25:09;;;;;;;19.10;9.95;;;;;;;26.13;49.94;99726.59;4970396;28;20133;-53
2021/07/12 20:27:35;;;;;;;17.10;9.25;;;;;;;26.07;50.06;99732.53;4967469;28;20071;-54
2021/07/12 20:30:01;;;;;;;15.38;7.55;;;;;;;26.03;50.01;99731.16;4972782;28;20074;-54
2021/07/12 20:32:27;;;;;;;11.48;7.28;;;;;;;25.99;50.62;99731.63;4969608;28;20046;-53
2021/07/12 20:34:53;;;;;;;18.23;7.80;;;;;;;25.96;50.52;99731.94;4986385;28;20042;-54
2021/07/12 20:37:19;;;;;;;17.02;7.45;;;;;;;25.92;51.01;99730.53;4983415;28;20046;-53
2021/07/12 20:39:44;;;;;;;17.23;6.95;;;;;;;25.87;51.58;99730.13;4971864;28;20106;-55
2021/07/12 20:42:10;;;;;;;12.77;6.60;;;;;;;25.82;51.56;99735.06;4979355;28;20051;-54
2021/07/12 20:44:36;;;;;;;15.52;7.43;;;;;;;25.77;51.79;99734.69;4967699;28;20043;-54
2021/07/12 20:47:01;;;;;;;17.13;7.82;;;;;;;25.72;52.44;99738.63;4967401;28;20046;-52
2021/07/12 20:49:27;;;;;;;16.65;7.90;;;;;;;25.66;52.85;99733.88;4964219;28;20038;-58
2021/07/12 20:51:53;;;;;;;18.35;7.93;;;;;;;25.64;52.10;99729.72;4966080;28;20035;-52
2021/07/12 20:54:19;;;;;;;15.38;7.43;;;;;;;25.65;52.36;99734.88;4965248;28;20043;-53
2021/07/12 20:56:44;;;;;;;17.92;7.50;;;;;;;25.66;52.78;99733.88;4968926;28;20478;-52
2021/07/12 20:59:11;;;;;;;17.30;7.68;;;;;;;25.64;53.40;99737.69;4991871;28;20047;-54
2021/07/12 21:01:36;;;;;;;17.83;7.65;;;;;;;25.58;52.89;99736.47;4979419;28;20102;-54
2021/07/12 21:04:02;;;;;;;17.65;9.35;;;;;;;25.56;53.15;99729.59;4975409;28;20402;-52
2021/07/12 21:06:28;;;;;;;15.95;9.98;;;;;;;25.55;53.35;99734.06;4973187;28;20509;-54
2021/07/12 21:08:53;;;;;;;16.42;7.93;;;;;;;25.52;53.28;99725.50;4990212;28;20077;-54
2021/07/12 21:11:19;;;;;;;16.70;8.15;;;;;;;25.49;53.20;99723.16;4971803;28;20043;-54
2021/07/12 21:13:45;;;;;;;11.52;8.05;;;;;;;25.45;53.62;99732.41;4987535;28;20485;-54
2021/07/12 21:16:11;;;;;;;15.98;7.80;;;;;;;25.39;53.66;99733.81;4980992;28;20058;-53
2021/07/12 21:18:43;;;;;;;19.65;8.20;;;;;;;25.35;53.74;99734.25;4972147;28;20047;-53
2021/07/12 21:21:10;;;;;;;23.73;8.85;;;;;;;25.30;54.61;99740.03;4973936;28;20050;-52
2021/07/12 21:23:36;;;;;;;17.02;8.73;;;;;;;25.24;55.15;99733.44;4979071;28;20045;-54
2021/07/12 21:26:02;;;;;;;17.90;8.90;;;;;;;25.18;55.31;99720.72;4970527;28;20121;-54
2021/07/12 21:28:27;;;;;;;17.52;8.65;;;;;;;25.14;55.53;99727.31;4972928;28;20077;-54
2021/07/12 21:30:53;;;;;;;16.75;7.63;;;;;;;25.11;55.85;99732.09;4980338;28;20038;-55
2021/07/12 21:33:20;;;;;;;17.85;8.32;;;;;;;25.08;56.27;99729.72;4979326;28;20045;-55
2021/07/12 21:35:46;;;;;;;16.70;8.45;;;;;;;25.04;56.76;99733.66;4977685;28;20133;-53
2021/07/12 21:38:12;;;;;;;20.50;8.85;;;;;;;25.03;57.47;99729.31;4978822;28;20137;-53
2021/07/12 21:40:38;;;;;;;23.25;8.48;;;;;;;24.99;57.74;99736.75;4968235;28;20579;-52
2021/07/12 21:43:03;;;;;;;20.63;8.52;;;;;;;24.99;57.38;99739.41;4970522;28;20047;-58
2021/07/12 21:45:29;;;;;;;18.13;7.93;;;;;;;24.97;57.44;99729.88;4982030;28;20038;-53
2021/07/12 21:47:55;;;;;;;19.45;8.13;;;;;;;24.98;57.75;99727.06;4992029;28;20563;-53
2021/07/12 21:50:22;;;;;;;14.50;7.95;;;;;;;24.96;57.95;99734.38;4972116;28;20046;-52